Time;durP1;ratioP1;P1;durP2;ratioP2;P2;SDS_P1;SDS_P2;PMS_P1;PMS_P2;Temp;Humidity;BMP_temperature;BMP_pressure;BME280_temperature;BME280_humidity;BME280_pressure;Samples;Min_cycle;Max_cycle;Signal;HPM_P1;HPM_P2
2022/05/11 00:01:44;;;;;;;13.82;9.32;;;11.20;99.90;;;;;;5028151;28;20382;-48
2022/05/11 00:04:10;;;;;;;14.55;9.25;;;11.20;99.90;;;;;;5029921;28;20029;-52
2022/05/11 00:06:37;;;;;;;12.88;9.85;;;11.10;99.90;;;;;;5030031;28;20028;-48
2022/05/11 00:09:04;;;;;;;13.55;10.32;;;11.20;99.90;;;;;;5028629;28;20021;-51
2022/05/11 00:11:30;;;;;;;15.68;10.68;;;11.10;99.90;;;;;;5029788;28;20036;-52
2022/05/11 00:13:57;;;;;;;11.10;9.18;;;11.10;99.90;;;;;;5029879;28;20041;-49
2022/05/11 00:16:23;;;;;;;14.70;11.02;;;11.10;99.90;;;;;;5029959;28;20025;-51
2022/05/11 00:18:49;;;;;;;12.65;9.70;;;11.10;99.90;;;;;;5029826;28;20112;-50
2022/05/11 00:21:15;;;;;;;10.68;9.00;;;11.10;99.90;;;;;;5032340;28;20100;-52
2022/05/11 00:23:41;;;;;;;14.30;9.38;;;11.10;99.90;;;;;;5033870;28;20037;-49
2022/05/11 00:26:06;;;;;;;13.98;9.57;;;11.10;99.90;;;;;;5033741;28;20032;-49
2022/05/11 00:28:32;;;;;;;15.00;10.73;;;11.10;99.90;;;;;;5033298;28;20017;-49
2022/05/11 00:30:58;;;;;;;12.98;10.43;;;11.10;99.90;;;;;;5032336;28;20018;-48
2022/05/11 00:33:24;;;;;;;15.45;10.90;;;11.10;99.90;;;;;;5033443;28;20444;-51
2022/05/11 00:35:51;;;;;;;13.65;10.15;;;11.10;99.90;;;;;;5033459;28;20057;-48
2022/05/11 00:38:19;;;;;;;18.98;10.10;;;11.10;99.90;;;;;;5033381;28;20077;-47
2022/05/11 00:40:47;;;;;;;14.18;10.95;;;11.10;99.90;;;;;;5032170;28;20029;-49
2022/05/11 00:43:13;;;;;;;13.48;10.68;;;11.10;99.90;;;;;;5033227;28;20585;-49
2022/05/11 00:45:45;;;;;;;14.68;9.98;;;11.10;99.90;;;;;;5033405;28;20025;-48
2022/05/11 00:51:00;;;;;;;12.35;9.00;;;11.20;99.90;;;;;;5013845;28;20051;-47
2022/05/11 00:53:26;;;;;;;10.90;9.55;;;11.10;99.90;;;;;;5028507;28;20030;-49
2022/05/11 00:55:58;;;;;;;11.93;9.60;;;11.10;99.90;;;;;;5013928;28;20034;-50
2022/05/11 00:58:32;;;;;;;11.18;9.75;;;11.10;99.90;;;;;;5012533;28;20132;-50
2022/05/11 01:00:58;;;;;;;12.43;10.55;;;11.10;99.90;;;;;;5010996;28;20048;-48
2022/05/11 01:03:30;;;;;;;14.55;10.32;;;11.10;99.90;;;;;;5025760;28;20103;-48
2022/05/11 01:05:56;;;;;;;12.38;10.15;;;11.10;99.90;;;;;;5013180;28;20027;-48
2022/05/11 01:08:23;;;;;;;15.70;10.88;;;11.20;99.90;;;;;;5013399;28;20033;-48
2022/05/11 01:10:49;;;;;;;12.10;9.60;;;11.20;99.90;;;;;;5028508;28;20026;-48
2022/05/11 01:13:17;;;;;;;13.77;10.07;;;11.20;99.90;;;;;;5012982;28;20036;-48
2022/05/11 01:15:47;;;;;;;11.65;9.98;;;11.20;99.90;;;;;;5012922;28;20119;-47
2022/05/11 01:18:13;;;;;;;13.55;9.57;;;11.10;99.90;;;;;;5012910;28;20025;-49
2022/05/11 01:20:39;;;;;;;13.77;9.13;;;11.10;99.90;;;;;;5011277;28;20033;-52
2022/05/11 01:23:10;;;;;;;13.18;9.57;;;11.10;99.90;;;;;;5012482;28;20029;-49
2022/05/11 01:25:36;;;;;;;13.88;10.27;;;11.10;99.90;;;;;;5012934;28;20029;-48
2022/05/11 01:28:11;;;;;;;15.18;10.48;;;11.20;99.90;;;;;;5012668;28;20022;-50
2022/05/11 01:30:39;;;;;;;11.52;9.20;;;11.20;99.90;;;;;;5013241;28;20089;-48
2022/05/11 01:33:05;;;;;;;14.45;11.15;;;11.20;99.90;;;;;;5013052;28;20092;-49
2022/05/11 01:35:40;;;;;;;13.63;10.07;;;11.10;99.90;;;;;;5012983;28;20030;-48
2022/05/11 01:38:30;;;;;;;12.07;10.75;;;11.20;99.90;;;;;;5012755;28;20030;-47
2022/05/11 01:40:56;;;;;;;16.77;12.20;;;11.20;99.90;;;;;;5027632;28;20029;-49
2022/05/11 01:43:31;;;;;;;14.20;11.68;;;11.20;99.90;;;;;;5012493;28;20030;-47
2022/05/11 01:45:57;;;;;;;14.27;11.88;;;11.20;99.90;;;;;;5012628;28;20028;-50
2022/05/11 01:48:24;;;;;;;15.27;11.55;;;11.20;99.90;;;;;;5011187;28;20036;-49
2022/05/11 01:50:50;;;;;;;15.02;12.32;;;11.20;99.90;;;;;;5012362;28;20057;-50
2022/05/11 01:53:16;;;;;;;17.00;11.93;;;11.20;99.90;;;;;;5011975;28;20053;-48
2022/05/11 01:55:42;;;;;;;16.33;11.43;;;11.30;99.90;;;;;;5012378;28;20116;-50
2022/05/11 01:58:09;;;;;;;15.32;12.48;;;11.30;99.90;;;;;;5011103;28;20139;-48
2022/05/11 02:00:36;;;;;;;14.88;11.68;;;11.30;99.90;;;;;;4994760;28;20409;-48
2022/05/11 02:03:02;;;;;;;17.70;12.88;;;11.30;99.90;;;;;;5011870;28;20099;-49
2022/05/11 02:08:12;;;;;;;17.50;13.00;;;11.30;99.90;;;;;;5012412;28;20045;-48
2022/05/11 02:10:38;;;;;;;20.30;14.80;;;11.30;99.90;;;;;;5012519;28;20038;-51
2022/05/11 02:13:04;;;;;;;17.73;13.63;;;11.30;99.90;;;;;;5010496;28;20033;-48
2022/05/11 02:15:29;;;;;;;19.38;13.93;;;11.30;99.90;;;;;;5010687;28;20061;-49
2022/05/11 02:17:55;;;;;;;17.65;13.65;;;11.30;99.90;;;;;;5027163;28;20121;-49
2022/05/11 02:20:21;;;;;;;16.23;13.77;;;11.30;99.90;;;;;;5011332;28;20137;-51
2022/05/11 02:22:48;;;;;;;18.25;13.68;;;11.30;99.90;;;;;;5020841;28;20080;-48
2022/05/11 02:25:15;;;;;;;16.90;12.85;;;11.30;99.90;;;;;;5023127;28;20025;-50
2022/05/11 02:27:42;;;;;;;15.85;13.70;;;11.30;99.90;;;;;;5031465;28;20022;-48
2022/05/11 02:30:13;;;;;;;14.73;13.15;;;11.30;99.90;;;;;;5030822;28;20106;-50
2022/05/11 02:32:39;;;;;;;18.20;14.55;;;11.40;99.90;;;;;;5029668;28;20101;-50
2022/05/11 02:35:12;;;;;;;19.42;14.73;;;11.40;99.90;;;;;;5031652;28;20037;-49
2022/05/11 02:37:43;;;;;;;20.08;15.82;;;11.40;99.90;;;;;;5031455;28;20104;-50
2022/05/11 02:40:11;;;;;;;20.20;14.75;;;11.40;99.90;;;;;;5031252;28;20029;-50
2022/05/11 02:42:37;;;;;;;18.02;14.00;;;11.40;99.90;;;;;;5030374;28;20038;-49
2022/05/11 02:45:04;;;;;;;17.80;14.35;;;11.40;99.90;;;;;;5029651;28;20013;-48
2022/05/11 02:47:29;;;;;;;17.65;14.57;;;11.40;99.90;;;;;;5031256;28;20036;-49
2022/05/11 02:49:55;;;;;;;17.55;14.40;;;11.40;99.90;;;;;;5031405;28;20025;-48
2022/05/11 02:52:20;;;;;;;20.83;15.23;;;11.40;99.90;;;;;;5029636;28;20029;-49
2022/05/11 02:54:48;;;;;;;17.20;13.10;;;11.40;99.90;;;;;;5030985;28;20028;-48
2022/05/11 02:57:15;;;;;;;18.02;13.60;;;11.40;99.90;;;;;;5030820;28;20124;-47
2022/05/11 02:59:41;;;;;;;17.05;13.85;;;11.40;99.90;;;;;;5029339;28;20321;-48
2022/05/11 03:04:34;;;;;;;17.92;14.32;;;11.40;99.90;;;;;;4969029;28;20047;-46
2022/05/11 03:07:00;;;;;;;17.95;15.45;;;11.40;99.90;;;;;;4971986;28;20450;-46
2022/05/11 03:09:25;;;;;;;17.08;13.82;;;11.40;99.90;;;;;;4971793;28;20451;-47
2022/05/11 03:11:51;;;;;;;15.82;13.73;;;11.40;99.90;;;;;;4971334;28;20109;-46
2022/05/11 03:14:17;;;;;;;18.33;14.27;;;11.40;99.90;;;;;;4971655;28;20038;-46
2022/05/11 03:16:43;;;;;;;16.05;13.27;;;11.40;99.90;;;;;;4971845;28;20038;-46
2022/05/11 03:19:09;;;;;;;17.15;12.80;;;11.40;99.90;;;;;;4970979;28;20027;-47
2022/05/11 03:21:34;;;;;;;18.88;14.15;;;11.40;99.90;;;;;;4971512;28;20093;-47
2022/05/11 03:24:01;;;;;;;15.77;13.70;;;11.40;99.90;;;;;;4971601;28;20541;-46
2022/05/11 03:26:27;;;;;;;16.63;13.48;;;11.40;99.90;;;;;;4971763;28;20130;-46
2022/05/11 03:28:53;;;;;;;14.75;13.07;;;11.40;99.90;;;;;;4971714;28;20423;-46
2022/05/11 03:31:19;;;;;;;14.90;12.57;;;11.40;99.90;;;;;;4971803;28;20018;-46
2022/05/11 03:36:30;;;;;;;13.85;12.18;;;11.30;99.90;;;;;;4971852;28;20046;-46
2022/05/11 03:38:55;;;;;;;15.63;13.55;;;11.30;99.90;;;;;;4971294;28;20030;-46
2022/05/11 03:41:21;;;;;;;15.23;12.93;;;11.30;99.90;;;;;;4971005;28;20093;-50
2022/05/11 03:43:47;;;;;;;14.10;11.88;;;11.30;99.90;;;;;;4971356;28;20411;-47
2022/05/11 03:46:13;;;;;;;15.95;13.02;;;11.40;99.90;;;;;;4971355;28;20027;-46
2022/05/11 03:48:38;;;;;;;15.93;12.98;;;11.40;99.90;;;;;;4971184;28;20022;-46
2022/05/11 03:51:04;;;;;;;15.70;12.40;;;11.40;99.90;;;;;;4971192;28;20442;-46
2022/05/11 03:53:31;;;;;;;16.40;14.50;;;11.40;99.90;;;;;;4970927;28;20031;-46
2022/05/11 03:55:57;;;;;;;15.10;12.65;;;11.40;99.90;;;;;;4970285;28;20029;-46
2022/05/11 03:58:23;;;;;;;16.80;11.75;;;11.40;99.90;;;;;;4971313;28;20720;-48
2022/05/11 04:00:48;;;;;;;14.55;13.10;;;11.50;99.90;;;;;;4971043;28;20633;-46
2022/05/11 04:03:14;;;;;;;18.52;12.15;;;11.50;99.90;;;;;;4970596;28;20104;-47
2022/05/11 04:05:39;;;;;;;16.08;12.60;;;11.50;99.90;;;;;;4971208;28;20451;-47
2022/05/11 04:08:05;;;;;;;14.13;12.27;;;11.50;99.90;;;;;;4971347;28;20027;-46
2022/05/11 04:10:31;;;;;;;14.75;13.07;;;11.50;99.90;;;;;;4971208;28;20078;-46
2022/05/11 04:12:58;;;;;;;14.35;12.27;;;11.50;99.90;;;;;;4970774;28;20034;-46
2022/05/11 04:15:24;;;;;;;12.57;11.30;;;11.60;99.90;;;;;;4970888;28;20102;-46
2022/05/11 04:17:49;;;;;;;14.55;12.50;;;11.50;99.90;;;;;;4971056;28;20070;-46
2022/05/11 04:20:17;;;;;;;15.43;12.98;;;11.60;99.90;;;;;;4970918;28;20081;-47
2022/05/11 04:22:43;;;;;;;13.07;11.65;;;11.60;99.90;;;;;;4970926;28;20105;-46
2022/05/11 04:25:14;;;;;;;15.00;11.43;;;11.60;99.90;;;;;;4970805;28;20197;-49
2022/05/11 04:27:40;;;;;;;13.88;11.73;;;11.60;99.90;;;;;;4953477;28;20026;-47
2022/05/11 04:30:07;;;;;;;16.63;12.68;;;11.60;99.90;;;;;;4970675;28;20031;-46
2022/05/11 04:32:34;;;;;;;17.08;13.07;;;11.60;99.90;;;;;;4953294;28;20030;-46
2022/05/11 04:34:59;;;;;;;12.93;11.45;;;11.70;99.90;;;;;;4970787;28;20114;-45
2022/05/11 04:37:25;;;;;;;14.35;12.57;;;11.70;99.90;;;;;;4970763;28;20069;-47
2022/05/11 04:39:50;;;;;;;16.35;13.35;;;11.70;99.90;;;;;;4970656;28;20479;-46
2022/05/11 04:42:16;;;;;;;16.48;12.98;;;11.70;99.90;;;;;;4970431;28;20058;-46
2022/05/11 04:44:42;;;;;;;16.05;12.93;;;11.80;99.90;;;;;;4970961;28;20027;-46
2022/05/11 04:47:09;;;;;;;17.63;13.70;;;11.80;99.90;;;;;;4970932;28;20139;-46
2022/05/11 04:49:35;;;;;;;14.18;12.02;;;11.80;99.90;;;;;;4970700;28;20150;-48
2022/05/11 04:52:07;;;;;;;17.05;13.52;;;11.90;99.90;;;;;;4970314;28;20129;-48
2022/05/11 04:54:44;;;;;;;14.45;11.95;;;11.90;99.90;;;;;;4970836;28;20041;-46
2022/05/11 04:57:11;;;;;;;15.65;12.48;;;11.90;99.90;;;;;;4970693;28;20411;-47
2022/05/11 04:59:39;;;;;;;14.55;12.60;;;11.90;99.90;;;;;;4953561;28;20398;-47
2022/05/11 05:02:05;;;;;;;15.18;12.40;;;11.90;99.90;;;;;;4970397;28;20023;-47
2022/05/11 05:04:32;;;;;;;14.65;12.20;;;12.00;99.90;;;;;;4970694;28;20042;-47
2022/05/11 05:06:57;;;;;;;13.65;12.25;;;12.00;99.90;;;;;;4972622;28;20022;-46
2022/05/11 05:09:23;;;;;;;15.20;12.35;;;12.10;99.90;;;;;;4956694;28;20427;-47
2022/05/11 05:11:50;;;;;;;15.38;12.68;;;12.10;99.90;;;;;;4973733;28;20031;-46
2022/05/11 05:14:16;;;;;;;12.52;11.23;;;12.10;99.90;;;;;;4973997;28;20027;-47
2022/05/11 05:16:42;;;;;;;14.57;12.75;;;12.20;99.90;;;;;;4974015;28;20514;-47
2022/05/11 05:19:09;;;;;;;15.70;12.93;;;12.20;99.90;;;;;;4973653;28;20066;-49
2022/05/11 05:21:35;;;;;;;16.40;12.52;;;12.30;99.90;;;;;;4974039;28;20483;-46
2022/05/11 05:24:01;;;;;;;14.52;12.27;;;12.30;99.90;;;;;;4974499;28;20038;-46
2022/05/11 05:26:27;;;;;;;14.02;12.15;;;12.30;99.90;;;;;;4972002;28;20027;-48
2022/05/11 05:31:37;;;;;;;12.82;11.43;;;12.40;99.90;;;;;;4972501;28;20506;-48
2022/05/11 05:34:04;;;;;;;14.02;11.45;;;12.40;99.90;;;;;;4973540;28;20031;-47
2022/05/11 05:36:32;;;;;;;13.95;11.88;;;12.40;99.90;;;;;;4973564;28;20026;-46
2022/05/11 05:38:58;;;;;;;15.70;12.77;;;12.50;99.90;;;;;;4973722;28;20432;-47
2022/05/11 05:41:26;;;;;;;13.30;11.90;;;12.50;99.90;;;;;;4973153;28;20102;-47
2022/05/11 05:43:52;;;;;;;13.70;12.07;;;12.60;99.90;;;;;;4955939;28;20030;-47
2022/05/11 05:46:18;;;;;;;12.52;10.80;;;12.70;99.90;;;;;;4973441;28;20028;-48
2022/05/11 05:48:44;;;;;;;12.77;11.00;;;12.70;99.90;;;;;;4973459;28;20499;-46
2022/05/11 05:51:12;;;;;;;14.50;11.55;;;12.70;99.90;;;;;;4973039;28;20033;-46
2022/05/11 05:53:40;;;;;;;14.95;11.73;;;12.70;99.90;;;;;;4973354;28;20031;-46
2022/05/11 05:56:06;;;;;;;15.75;13.10;;;12.80;99.90;;;;;;4973316;28;20446;-50
2022/05/11 05:58:32;;;;;;;11.60;10.35;;;12.80;99.90;;;;;;4973328;28;20033;-47
2022/05/11 06:00:57;;;;;;;16.20;12.32;;;12.90;99.90;;;;;;4955930;28;20034;-46
2022/05/11 06:03:26;;;;;;;11.85;10.13;;;13.00;99.90;;;;;;4955612;28;20034;-49
2022/05/11 06:05:51;;;;;;;15.73;11.88;;;13.00;99.90;;;;;;4973137;28;20506;-47
2022/05/11 06:08:18;;;;;;;14.45;11.57;;;13.10;99.90;;;;;;4956047;28;20027;-47
2022/05/11 06:10:45;;;;;;;12.77;11.57;;;13.10;99.90;;;;;;4972860;28;20074;-46
2022/05/11 06:13:13;;;;;;;13.63;10.88;;;13.20;99.90;;;;;;4972578;28;20030;-47
2022/05/11 06:15:39;;;;;;;14.20;12.20;;;13.30;99.90;;;;;;4972603;28;20067;-48
2022/05/11 06:18:09;;;;;;;14.55;11.80;;;13.30;99.90;;;;;;4972152;28;20077;-51
2022/05/11 06:20:36;;;;;;;13.40;12.00;;;13.40;99.90;;;;;;4972769;28;20023;-48
2022/05/11 06:23:03;;;;;;;12.73;10.73;;;13.50;99.90;;;;;;4972279;28;20026;-49
2022/05/11 06:25:30;;;;;;;13.13;11.45;;;13.50;99.90;;;;;;4972898;28;20037;-48
2022/05/11 06:27:58;;;;;;;12.15;10.93;;;13.50;99.90;;;;;;4972603;28;20066;-48
2022/05/11 06:30:28;;;;;;;12.15;10.88;;;13.60;99.90;;;;;;4972395;28;20027;-51
2022/05/11 06:32:54;;;;;;;14.48;10.98;;;13.70;99.90;;;;;;4972858;28;20033;-48
2022/05/11 06:35:20;;;;;;;12.63;10.07;;;13.70;99.90;;;;;;4972665;28;20109;-48
2022/05/11 06:37:46;;;;;;;13.18;11.88;;;13.70;99.90;;;;;;4972534;28;20156;-47
2022/05/11 06:40:14;;;;;;;11.57;9.73;;;13.70;99.90;;;;;;4972403;28;20039;-48
2022/05/11 06:42:39;;;;;;;11.15;9.52;;;13.70;99.90;;;;;;4972052;28;20031;-47
2022/05/11 06:45:06;;;;;;;12.85;11.57;;;13.80;99.90;;;;;;4972526;28;20023;-47
2022/05/11 06:47:33;;;;;;;14.52;11.30;;;13.80;99.90;;;;;;4972494;28;20027;-47
2022/05/11 06:49:59;;;;;;;15.50;11.85;;;13.80;99.90;;;;;;4972265;28;20023;-47
2022/05/11 06:52:24;;;;;;;14.00;10.55;;;13.90;99.90;;;;;;4971998;28;20739;-48
2022/05/11 07:00:19;;;;;;;14.13;11.57;;;14.10;99.90;;;;;;4972366;28;20399;-49
2022/05/11 07:02:45;;;;;;;15.65;11.18;;;14.20;99.90;;;;;;4971371;28;20035;-47
2022/05/11 07:05:11;;;;;;;11.90;10.70;;;14.20;99.90;;;;;;4972404;28;20541;-48
2022/05/11 07:07:37;;;;;;;13.65;11.48;;;14.30;99.90;;;;;;4972160;28;20023;-47
2022/05/11 07:10:03;;;;;;;13.07;10.73;;;14.40;99.90;;;;;;4954546;28;20162;-51
2022/05/11 07:12:45;;;;;;;13.38;10.75;;;14.50;99.90;;;;;;4971636;28;20034;-48
2022/05/11 07:15:12;;;;;;;13.50;11.93;;;14.60;99.90;;;;;;4954706;28;20101;-48
2022/05/11 07:17:45;;;;;;;12.90;11.30;;;14.60;99.90;;;;;;4971842;28;20043;-47
2022/05/11 07:20:12;;;;;;;12.02;10.55;;;14.70;99.90;;;;;;4971761;28;20035;-47
2022/05/11 07:22:39;;;;;;;12.98;11.68;;;14.70;99.90;;;;;;4971776;28;20035;-49
2022/05/11 07:25:06;;;;;;;13.25;10.88;;;14.60;99.90;;;;;;4971822;28;20026;-47
2022/05/11 07:27:32;;;;;;;10.80;9.20;;;14.60;99.90;;;;;;4971949;28;20038;-48
2022/05/11 07:29:57;;;;;;;11.45;10.05;;;14.50;99.90;;;;;;4971556;28;20023;-47
2022/05/11 07:32:25;;;;;;;10.73;9.73;;;14.60;99.90;;;;;;4971510;28;20041;-48
2022/05/11 07:34:51;;;;;;;12.43;9.70;;;14.50;99.90;;;;;;4971568;28;20023;-48
2022/05/11 07:37:16;;;;;;;10.93;9.10;;;14.50;99.90;;;;;;4971728;28;20400;-48
2022/05/11 07:39:42;;;;;;;13.10;9.60;;;14.60;99.90;;;;;;4971643;28;20042;-49
2022/05/11 07:42:08;;;;;;;11.82;9.30;;;14.60;99.90;;;;;;4971244;28;20081;-49
2022/05/11 07:44:34;;;;;;;11.48;8.80;;;14.60;99.90;;;;;;4971560;28;20032;-48
2022/05/11 07:46:59;;;;;;;10.82;8.77;;;14.60;99.90;;;;;;4971533;28;20510;-46
2022/05/11 07:49:25;;;;;;;11.45;9.93;;;14.60;99.90;;;;;;4971349;28;20023;-48
2022/05/11 07:51:52;;;;;;;9.30;8.40;;;14.70;99.90;;;;;;4971085;28;20025;-48
2022/05/11 07:54:19;;;;;;;12.43;8.65;;;14.70;99.90;;;;;;4971425;28;20026;-49
2022/05/11 08:02:13;;;;;;;10.35;8.70;;;14.90;99.90;;;;;;4971099;28;20098;-47
2022/05/11 08:04:41;;;;;;;10.13;8.27;;;14.90;99.90;;;;;;4971395;28;20443;-47
2022/05/11 08:07:07;;;;;;;12.63;8.32;;;15.00;99.90;;;;;;4968278;28;20019;-49
2022/05/11 08:09:33;;;;;;;10.00;7.53;;;15.00;99.90;;;;;;4959323;28;20022;-47
2022/05/11 08:12:00;;;;;;;10.73;8.43;;;15.00;99.90;;;;;;4958224;28;20023;-47
2022/05/11 08:14:26;;;;;;;10.30;7.95;;;15.00;99.90;;;;;;4951649;28;20036;-46
2022/05/11 08:16:52;;;;;;;9.20;7.75;;;15.00;99.90;;;;;;4951923;29;20019;-48
2022/05/11 08:19:22;;;;;;;8.48;7.47;;;15.00;99.90;;;;;;4951691;29;20035;-49
2022/05/11 08:21:49;;;;;;;9.73;8.52;;;15.00;99.90;;;;;;4951016;29;20031;-48
2022/05/11 08:24:15;;;;;;;10.68;7.82;;;15.00;99.90;;;;;;4951418;28;20031;-46
2022/05/11 08:26:41;;;;;;;8.90;7.78;;;15.10;99.90;;;;;;4934641;29;20066;-48
2022/05/11 08:29:08;;;;;;;7.88;7.07;;;15.20;99.90;;;;;;4951616;29;20106;-47
2022/05/11 08:34:18;;;;;;;9.82;7.85;;;15.40;99.90;;;;;;4951711;28;20031;-48
2022/05/11 08:36:47;;;;;;;10.52;7.55;;;15.50;99.90;;;;;;4951896;29;20027;-47
2022/05/11 08:39:13;;;;;;;10.57;7.43;;;15.50;99.90;;;;;;4951587;29;20043;-47
2022/05/11 08:41:51;;;;;;;11.68;7.82;;;15.60;99.90;;;;;;4952963;28;20027;-50
2022/05/11 08:44:23;;;;;;;9.13;6.82;;;15.70;99.90;;;;;;4953986;28;20403;-48
2022/05/11 08:47:13;;;;;;;9.93;8.00;;;15.90;99.90;;;;;;4955240;29;20023;-48
2022/05/11 08:50:16;;;;;;;10.45;7.63;;;16.10;99.90;;;;;;4955159;29;20055;-51
2022/05/11 08:52:57;;;;;;;9.25;7.93;;;16.20;99.90;;;;;;4946339;28;20062;-47
2022/05/11 08:55:59;;;;;;;11.07;8.05;;;16.40;99.90;;;;;;4955246;29;20563;-48
2022/05/11 08:58:31;;;;;;;7.68;6.85;;;16.60;99.90;;;;;;4914510;29;20028;-46
2022/05/11 09:00:58;;;;;;;9.98;7.50;;;16.80;99.90;;;;;;4948583;29;20036;-47
2022/05/11 09:03:34;;;;;;;8.30;7.50;;;16.90;99.90;;;;;;4954500;28;20037;-48
2022/05/11 09:06:02;;;;;;;8.80;7.35;;;17.10;99.90;;;;;;4953520;29;20023;-48
2022/05/11 09:08:32;;;;;;;11.05;7.28;;;17.20;99.90;;;;;;4937589;29;20094;-48
2022/05/11 09:10:58;;;;;;;8.23;6.43;;;17.20;99.90;;;;;;4955291;29;20028;-49
2022/05/11 09:13:26;;;;;;;7.13;6.43;;;17.20;99.90;;;;;;4954860;28;20024;-47
2022/05/11 09:15:55;;;;;;;7.60;6.80;;;17.20;99.90;;;;;;4955049;29;20027;-48
2022/05/11 09:18:34;;;;;;;9.15;7.10;;;17.20;99.90;;;;;;4955204;29;20078;-48
2022/05/11 09:21:10;;;;;;;7.85;6.60;;;17.20;99.90;;;;;;4954667;29;20491;-50
2022/05/11 09:23:41;;;;;;;9.38;7.05;;;17.40;99.90;;;;;;4954283;28;20035;-52
2022/05/11 09:26:10;;;;;;;8.63;6.50;;;17.50;99.90;;;;;;4954014;29;20272;-51
2022/05/11 09:28:42;;;;;;;12.07;7.28;;;17.70;99.90;;;;;;4954799;29;20123;-49
2022/05/11 09:31:14;;;;;;;10.65;6.78;;;17.90;99.90;;;;;;4954545;29;20094;-46
2022/05/11 09:33:57;;;;;;;9.32;6.68;;;17.90;99.90;;;;;;4954566;28;20031;-48
2022/05/11 09:36:55;;;;;;;8.38;6.65;;;18.00;99.90;;;;;;4954380;29;20038;-47
2022/05/11 09:39:22;;;;;;;9.57;6.85;;;18.20;99.90;;;;;;4954529;29;20107;-49
2022/05/11 09:41:51;;;;;;;9.48;7.28;;;18.30;99.90;;;;;;4953901;29;20118;-48
2022/05/11 09:44:23;;;;;;;12.25;7.50;;;18.40;99.90;;;;;;4953206;28;20059;-49
2022/05/11 09:46:50;;;;;;;9.60;6.45;;;18.40;99.90;;;;;;4954380;29;20027;-49
2022/05/11 09:49:15;;;;;;;9.55;6.68;;;18.50;99.90;;;;;;4954833;29;20023;-51
2022/05/11 09:51:46;;;;;;;8.18;6.75;;;18.60;99.90;;;;;;4954298;28;20111;-47
2022/05/11 09:54:18;;;;;;;9.18;6.65;;;18.90;99.90;;;;;;4953841;28;20026;-47
2022/05/11 09:56:50;;;;;;;8.85;6.55;;;19.10;99.90;;;;;;4954533;29;20028;-52
2022/05/11 09:59:32;;;;;;;8.32;6.55;;;19.20;99.90;;;;;;4953985;29;20027;-49
2022/05/11 10:02:23;;;;;;;8.63;6.15;;;19.30;99.90;;;;;;4953730;29;20034;-47
2022/05/11 10:04:55;;;;;;;7.00;6.22;;;19.40;99.90;;;;;;4953876;29;20054;-48
2022/05/11 10:07:22;;;;;;;8.18;6.43;;;19.50;99.90;;;;;;4953948;29;20511;-48
2022/05/11 10:10:02;;;;;;;7.10;6.38;;;19.50;99.90;;;;;;4953922;29;20512;-48
2022/05/11 10:12:35;;;;;;;7.32;6.22;;;19.60;99.90;;;;;;4953756;28;20050;-47
2022/05/11 10:23:59;;;;;;;6.90;5.97;;;19.80;99.90;;;;;;4953444;28;20066;-48
2022/05/11 10:26:36;;;;;;;8.50;6.35;;;19.70;99.90;;;;;;4953679;29;20023;-49
2022/05/11 10:29:17;;;;;;;7.07;5.50;;;19.60;99.90;;;;;;4953897;29;20090;-47
2022/05/11 10:32:00;;;;;;;6.53;5.63;;;19.70;99.90;;;;;;4954234;29;20024;-50
2022/05/11 10:34:35;;;;;;;7.72;5.35;;;19.80;99.90;;;;;;4954025;28;20034;-51
2022/05/11 10:37:16;;;;;;;6.75;5.55;;;19.90;99.90;;;;;;4953651;29;20027;-49
2022/05/11 10:40:07;;;;;;;6.00;5.03;;;20.00;99.90;;;;;;4953566;29;20051;-47
2022/05/11 10:42:34;;;;;;;5.88;5.20;;;20.10;99.90;;;;;;4952693;28;20031;-51
2022/05/11 10:45:18;;;;;;;7.22;5.45;;;20.20;99.90;;;;;;4935983;29;20504;-51
2022/05/11 10:48:11;;;;;;;8.05;5.18;;;20.20;99.90;;;;;;4953255;29;20058;-48
2022/05/11 10:51:02;;;;;;;5.82;4.35;;;20.30;99.90;;;;;;4953154;29;20023;-48
2022/05/11 10:53:48;;;;;;;5.75;4.72;;;20.40;99.90;;;;;;4935638;29;20035;-49
2022/05/11 10:56:29;;;;;;;5.97;4.28;;;20.40;99.90;;;;;;4952013;29;20032;-47
2022/05/11 10:59:03;;;;;;;4.78;3.90;;;20.50;99.90;;;;;;4952882;29;20038;-47
2022/05/11 11:01:50;;;;;;;7.43;3.60;;;20.50;99.90;;;;;;4951338;29;20031;-47
2022/05/11 11:04:41;;;;;;;4.88;3.95;;;20.40;99.90;;;;;;4951670;28;20046;-50
2022/05/11 11:07:26;;;;;;;6.65;3.83;;;20.30;99.90;;;;;;4952393;29;20038;-47
2022/05/11 11:10:17;;;;;;;5.97;4.00;;;20.30;99.90;;;;;;4952630;29;20763;-48
2022/05/11 11:13:21;;;;;;;7.30;3.85;;;20.20;99.90;;;;;;4951745;28;20474;-46
2022/05/11 11:15:46;;;;;;;10.57;3.80;;;20.20;99.90;;;;;;4951870;29;20047;-47
2022/05/11 11:18:16;;;;;;;8.93;3.78;;;20.20;99.90;;;;;;4952335;29;20066;-53
2022/05/11 11:20:45;;;;;;;6.30;3.30;;;20.10;99.90;;;;;;4952249;29;20436;-50
2022/05/11 11:23:13;;;;;;;5.70;3.47;;;20.00;99.90;;;;;;4951211;28;20559;-48
2022/05/11 11:25:52;;;;;;;6.13;3.88;;;20.20;99.90;;;;;;4950286;29;20038;-50
2022/05/11 11:28:20;;;;;;;4.15;3.33;;;20.40;99.90;;;;;;4951494;29;20026;-50
2022/05/11 11:30:57;;;;;;;4.18;3.70;;;20.70;99.90;;;;;;4950591;29;20090;-49
2022/05/11 11:33:24;;;;;;;5.45;4.03;;;20.90;99.90;;;;;;4951359;28;20031;-49
2022/05/11 11:36:23;;;;;;;6.78;4.45;;;21.00;99.90;;;;;;4951799;29;20047;-49
2022/05/11 11:38:49;;;;;;;5.25;4.07;;;21.00;99.90;;;;;;4946077;29;20455;-48
2022/05/11 11:41:20;;;;;;;6.60;4.18;;;20.80;97.40;;;;;;4951467;29;20031;-48
2022/05/11 11:43:53;;;;;;;4.53;4.05;;;20.70;99.90;;;;;;4951558;28;20059;-53
2022/05/11 11:46:38;;;;;;;8.95;4.72;;;20.80;98.50;;;;;;4951938;29;20024;-46
2022/05/11 11:49:29;;;;;;;6.20;4.20;;;20.90;98.50;;;;;;4951447;29;20020;-45
2022/05/11 11:52:00;;;;;;;6.60;5.07;;;21.00;99.10;;;;;;4951244;29;20508;-49
2022/05/11 11:54:37;;;;;;;7.70;5.35;;;21.00;99.20;;;;;;4951238;28;20114;-49
2022/05/11 11:57:19;;;;;;;6.47;4.43;;;21.10;98.70;;;;;;4951416;29;20038;-46
2022/05/11 11:59:48;;;;;;;6.22;4.07;;;21.20;99.90;;;;;;4950109;29;20086;-50
2022/05/11 12:02:16;;;;;;;4.55;3.78;;;21.30;99.00;;;;;;4909729;28;1202431;-45
2022/05/11 12:04:54;;;;;;;7.43;5.15;;;21.30;97.10;;;;;;4952066;29;20098;-49
2022/05/11 12:16:10;;;;;;;6.85;4.57;;;21.80;96.80;;;;;;4952841;28;20565;-48
2022/05/11 12:18:39;;;;;;;8.07;4.45;;;21.70;96.10;;;;;;4955542;29;20415;-48
2022/05/11 12:21:11;;;;;;;6.57;4.28;;;21.70;95.50;;;;;;4955867;29;20027;-49
2022/05/11 12:23:46;;;;;;;5.53;3.88;;;21.90;95.30;;;;;;4955886;28;20463;-51
2022/05/11 12:26:28;;;;;;;7.93;3.58;;;22.10;95.90;;;;;;4955743;29;20480;-49
2022/05/11 12:29:54;;;;;;;4.55;3.30;;;22.20;95.50;;;;;;4955497;29;20027;-52
2022/05/11 12:31:56;;;;;;;3.55;3.25;;;22.30;93.70;;;;;;4954923;29;20078;-49
2022/05/11 12:34:24;;;;;;;3.97;3.55;;;22.50;92.80;;;;;;4937824;29;20027;-48
2022/05/11 12:36:51;;;;;;;5.97;3.47;;;22.40;90.80;;;;;;4955290;29;20026;-46
2022/05/11 12:39:30;;;;;;;4.93;3.40;;;22.40;90.30;;;;;;4955473;29;20050;-51
2022/05/11 12:41:56;;;;;;;4.43;3.88;;;22.30;92.80;;;;;;4955295;29;20452;-51
2022/05/11 12:44:29;;;;;;;5.63;3.92;;;22.10;92.10;;;;;;4955102;28;20027;-48
2022/05/11 12:46:56;;;;;;;5.93;4.47;;;21.90;93.90;;;;;;4955159;29;20035;-51
2022/05/11 12:49:22;;;;;;;5.93;3.80;;;21.90;93.50;;;;;;4954975;29;20666;-50
2022/05/11 12:51:53;;;;;;;6.43;3.72;;;22.00;93.10;;;;;;4954873;29;20512;-48
2022/05/11 12:54:25;;;;;;;4.22;3.67;;;22.00;93.90;;;;;;4955154;28;20031;-47
2022/05/11 12:57:08;;;;;;;5.95;3.50;;;21.90;94.40;;;;;;4955471;29;20391;-50
2022/05/11 12:59:35;;;;;;;5.82;3.22;;;21.80;92.80;;;;;;4955485;29;20027;-52
2022/05/11 13:02:26;;;;;;;7.50;3.50;;;21.80;92.80;;;;;;4955182;29;20136;-52
2022/05/11 13:04:58;;;;;;;6.40;3.55;;;21.90;92.80;;;;;;4954080;29;20028;-51
2022/05/11 13:07:41;;;;;;;5.97;3.53;;;22.10;93.20;;;;;;4954980;29;20034;-49
2022/05/11 13:10:12;;;;;;;3.58;2.83;;;22.20;92.70;;;;;;4953615;29;20028;-49
2022/05/11 13:12:39;;;;;;;4.75;2.72;;;22.20;93.10;;;;;;4954460;28;20504;-52
2022/05/11 13:15:05;;;;;;;5.57;2.78;;;22.20;91.60;;;;;;4954677;29;20027;-51
2022/05/11 13:17:36;;;;;;;5.05;2.55;;;22.40;93.00;;;;;;4953530;29;20027;-48
2022/05/11 13:20:05;;;;;;;4.60;2.60;;;22.60;93.70;;;;;;4953620;29;20027;-49
2022/05/11 13:22:31;;;;;;;3.92;3.15;;;22.80;91.80;;;;;;4954209;28;20063;-53
2022/05/11 13:25:06;;;;;;;4.70;2.50;;;22.90;90.00;;;;;;4954024;29;20059;-51
2022/05/11 13:27:40;;;;;;;4.68;3.47;;;22.80;91.10;;;;;;4954333;28;20380;-49
2022/05/11 13:30:11;;;;;;;7.25;2.97;;;22.50;90.80;;;;;;4954588;29;20027;-51
2022/05/11 13:32:42;;;;;;;4.65;3.15;;;22.20;90.30;;;;;;4954119;28;20045;-51
2022/05/11 13:35:14;;;;;;;3.80;3.15;;;22.00;91.30;;;;;;4955152;29;20447;-53